Time;durP1;ratioP1;P1;durP2;ratioP2;P2;SDS_P1;SDS_P2;PMS_P1;PMS_P2;Temp;Humidity;BMP_temperature;BMP_pressure;BME280_temperature;BME280_humidity;BME280_pressure;Samples;Min_cycle;Max_cycle;Signal;HPM_P1;HPM_P2
2023/06/16 00:02:17;;;;;;;;;;;;;;;;;;5054861;28;19939;-73
2023/06/16 00:04:44;;;;;;;;;;;;;;;;;;5055473;28;20406;-73
2023/06/16 00:07:11;;;;;;;;;;;;;;;;;;5055966;28;20016;-73
2023/06/16 00:09:38;;;;;;;;;;;;;;;;;;5054944;28;19928;-73
2023/06/16 00:12:05;;;;;;;;;;;;;;;;;;5054754;28;19925;-73
2023/06/16 00:14:32;;;;;;;;;;;;;;;;;;5035072;28;19951;-73
2023/06/16 00:16:59;;;;;;;;;;;;;;;;;;5035025;28;19932;-74
2023/06/16 00:19:27;;;;;;;;;;;;;;;;;;5036128;28;20010;-73
2023/06/16 00:21:54;;;;;;;;;;;;;;;;;;5055098;28;19924;-73
2023/06/16 00:24:21;;;;;;;;;;;;;;;;;;5053325;28;20431;-73
2023/06/16 00:26:48;;;;;;;;;;;;;;;;;;5051521;28;20020;-74
2023/06/16 00:29:15;;;;;;;;;;;;;;;;;;5040824;28;19925;-73
2023/06/16 00:31:42;;;;;;;;;;;;;;;;;;5055168;28;20011;-73
2023/06/16 00:34:09;;;;;;;;;;;;;;;;;;5041361;28;20020;-73
2023/06/16 00:36:36;;;;;;;;;;;;;;;;;;5034842;28;20024;-74
2023/06/16 00:39:03;;;;;;;;;;;;;;;;;;5042645;28;19972;-73
2023/06/16 00:41:29;;;;;;;;;;;;;;;;;;5054888;28;19932;-73
2023/06/16 00:43:56;;;;;;;;;;;;;;;;;;5048899;28;20004;-73
2023/06/16 00:46:23;;;;;;;;;;;;;;;;;;5035053;28;20016;-74
2023/06/16 00:48:50;;;;;;;;;;;;;;;;;;5034513;28;20015;-73
2023/06/16 00:51:17;;;;;;;;;;;;;;;;;;5053592;28;19976;-73
2023/06/16 00:53:44;;;;;;;;;;;;;;;;;;5054656;28;20352;-74
2023/06/16 00:56:12;;;;;;;;;;;;;;;;;;5054246;28;19925;-74
2023/06/16 00:58:39;;;;;;;;;;;;;;;;;;5054891;28;19925;-74
2023/06/16 01:01:06;;;;;;;;;;;;;;;;;;5048045;28;19979;-73
2023/06/16 01:03:33;;;;;;;;;;;;;;;;;;5049955;28;20009;-74
2023/06/16 01:06:03;;;;;;;;;;;;;;;;;;5054315;28;19971;-73
2023/06/16 01:08:30;;;;;;;;;;;;;;;;;;5054870;28;19924;-74
2023/06/16 01:10:58;;;;;;;;;;;;;;;;;;5053949;28;20007;-74
2023/06/16 01:13:25;;;;;;;;;;;;;;;;;;5054405;28;19964;-72
2023/06/16 01:15:52;;;;;;;;;;;;;;;;;;5053553;28;19931;-73
2023/06/16 01:18:22;;;;;;;;;;;;;;;;;;5045944;28;20392;-72
2023/06/16 01:20:49;;;;;;;;;;;;;;;;;;5049724;28;19925;-72
2023/06/16 01:23:16;;;;;;;;;;;;;;;;;;5053661;28;19924;-72
2023/06/16 01:25:44;;;;;;;;;;;;;;;;;;5042417;28;19976;-72
2023/06/16 01:28:11;;;;;;;;;;;;;;;;;;5052152;28;20383;-72
2023/06/16 01:30:42;;;;;;;;;;;;;;;;;;5053851;28;20407;-71
2023/06/16 01:33:09;;;;;;;;;;;;;;;;;;5052186;28;19937;-72
2023/06/16 01:35:36;;;;;;;;;;;;;;;;;;5042720;28;20015;-71
2023/06/16 01:38:03;;;;;;;;;;;;;;;;;;5033409;28;20016;-72
2023/06/16 01:40:30;;;;;;;;;;;;;;;;;;5033683;28;20348;-72
2023/06/16 01:42:57;;;;;;;;;;;;;;;;;;5033553;28;19967;-72
2023/06/16 01:45:24;;;;;;;;;;;;;;;;;;5033578;28;20024;-73
2023/06/16 01:47:51;;;;;;;;;;;;;;;;;;5034254;28;20007;-73
2023/06/16 01:50:17;;;;;;;;;;;;;;;;;;5033446;28;19931;-72
2023/06/16 01:52:44;;;;;;;;;;;;;;;;;;5045088;28;20015;-73
2023/06/16 01:55:11;;;;;;;;;;;;;;;;;;5052943;28;20008;-72
2023/06/16 01:57:38;;;;;;;;;;;;;;;;;;5053027;28;20016;-73
2023/06/16 02:00:07;;;;;;;;;;;;;;;;;;5053336;28;20403;-73
2023/06/16 02:02:34;;;;;;;;;;;;;;;;;;5053203;28;19983;-73
2023/06/16 02:05:01;;;;;;;;;;;;;;;;;;5053073;28;19971;-73
2023/06/16 02:07:30;;;;;;;;;;;;;;;;;;5053363;28;19924;-74
2023/06/16 02:09:57;;;;;;;;;;;;;;;;;;5052894;28;19924;-73
2023/06/16 02:12:24;;;;;;;;;;;;;;;;;;5052943;28;20028;-72
2023/06/16 02:14:51;;;;;;;;;;;;;;;;;;5053478;28;20019;-72
2023/06/16 02:17:19;;;;;;;;;;;;;;;;;;5052402;28;19979;-73
2023/06/16 02:19:45;;;;;;;;;;;;;;;;;;5052960;28;19925;-72
2023/06/16 02:22:12;;;;;;;;;;;;;;;;;;5052701;28;20419;-72
2023/06/16 02:24:40;;;;;;;;;;;;;;;;;;5052562;28;20412;-72
2023/06/16 02:27:08;;;;;;;;;;;;;;;;;;5051214;28;19931;-73
2023/06/16 02:29:35;;;;;;;;;;;;;;;;;;5052869;28;19972;-73
2023/06/16 02:32:02;;;;;;;;;;;;;;;;;;5052241;28;20032;-72
2023/06/16 02:34:30;;;;;;;;;;;;;;;;;;5052401;28;19925;-72
2023/06/16 02:36:57;;;;;;;;;;;;;;;;;;5052252;28;19924;-72
2023/06/16 02:39:24;;;;;;;;;;;;;;;;;;5051985;28;20437;-73
2023/06/16 02:41:51;;;;;;;;;;;;;;;;;;5052272;28;19965;-72
2023/06/16 02:44:18;;;;;;;;;;;;;;;;;;5037788;28;20020;-72
2023/06/16 02:46:45;;;;;;;;;;;;;;;;;;5052047;28;19986;-71
2023/06/16 02:49:13;;;;;;;;;;;;;;;;;;5052678;28;19928;-73
2023/06/16 02:51:40;;;;;;;;;;;;;;;;;;5052448;28;19924;-72
2023/06/16 02:54:07;;;;;;;;;;;;;;;;;;5050852;28;19970;-72
2023/06/16 02:56:34;;;;;;;;;;;;;;;;;;5045561;28;19925;-72
2023/06/16 02:59:01;;;;;;;;;;;;;;;;;;5051882;28;20438;-72
2023/06/16 03:01:28;;;;;;;;;;;;;;;;;;5039602;28;19952;-72
2023/06/16 03:03:56;;;;;;;;;;;;;;;;;;5033052;28;20355;-72
2023/06/16 03:06:23;;;;;;;;;;;;;;;;;;5033318;28;19925;-72
2023/06/16 03:08:50;;;;;;;;;;;;;;;;;;5051491;28;19932;-73
2023/06/16 03:11:17;;;;;;;;;;;;;;;;;;5039432;28;20376;-72
2023/06/16 03:13:45;;;;;;;;;;;;;;;;;;5032426;28;20542;-72
2023/06/16 03:16:12;;;;;;;;;;;;;;;;;;5034006;28;19925;-72
2023/06/16 03:18:39;;;;;;;;;;;;;;;;;;5051205;28;19970;-72
2023/06/16 03:21:05;;;;;;;;;;;;;;;;;;5051060;28;19928;-73
2023/06/16 03:23:32;;;;;;;;;;;;;;;;;;5051537;28;20007;-72
2023/06/16 03:25:59;;;;;;;;;;;;;;;;;;5048897;28;19929;-73
2023/06/16 03:28:26;;;;;;;;;;;;;;;;;;5052318;28;19925;-72
2023/06/16 03:30:53;;;;;;;;;;;;;;;;;;5050512;28;20027;-72
2023/06/16 03:33:20;;;;;;;;;;;;;;;;;;5044203;28;20384;-73
2023/06/16 03:35:47;;;;;;;;;;;;;;;;;;5048076;28;19924;-73
2023/06/16 03:38:14;;;;;;;;;;;;;;;;;;5049686;28;20020;-73
2023/06/16 03:40:41;;;;;;;;;;;;;;;;;;5046945;28;20303;-73
2023/06/16 03:43:08;;;;;;;;;;;;;;;;;;5050243;28;20019;-73
2023/06/16 03:45:35;;;;;;;;;;;;;;;;;;5051100;28;20115;-73
2023/06/16 03:48:02;;;;;;;;;;;;;;;;;;5034186;28;20029;-72
2023/06/16 03:50:29;;;;;;;;;;;;;;;;;;5033523;28;19987;-72
2023/06/16 03:52:56;;;;;;;;;;;;;;;;;;5047953;28;20300;-73
2023/06/16 03:55:24;;;;;;;;;;;;;;;;;;5038180;28;19925;-73
2023/06/16 03:57:51;;;;;;;;;;;;;;;;;;5055213;28;20023;-74
2023/06/16 04:00:18;;;;;;;;;;;;;;;;;;5053750;28;20308;-73
2023/06/16 04:02:45;;;;;;;;;;;;;;;;;;5055171;28;19967;-72
2023/06/16 04:05:12;;;;;;;;;;;;;;;;;;5045736;28;20296;-73
2023/06/16 04:07:39;;;;;;;;;;;;;;;;;;5045950;28;20020;-73
2023/06/16 04:10:06;;;;;;;;;;;;;;;;;;5035156;28;20389;-73
2023/06/16 04:12:33;;;;;;;;;;;;;;;;;;5052559;28;19940;-73
2023/06/16 04:15:00;;;;;;;;;;;;;;;;;;5050334;28;20016;-73
2023/06/16 04:17:27;;;;;;;;;;;;;;;;;;5043885;28;19932;-73
2023/06/16 04:19:54;;;;;;;;;;;;;;;;;;5055589;28;19924;-73
2023/06/16 04:22:21;;;;;;;;;;;;;;;;;;5053284;28;19924;-72
2023/06/16 04:24:49;;;;;;;;;;;;;;;;;;5050591;28;20370;-73
2023/06/16 04:27:17;;;;;;;;;;;;;;;;;;5050906;28;19925;-73
2023/06/16 04:29:45;;;;;;;;;;;;;;;;;;5035207;28;19976;-73
2023/06/16 04:32:15;;;;;;;;;;;;;;;;;;5050429;28;20201;-74
2023/06/16 04:34:42;;;;;;;;;;;;;;;;;;5054673;28;20003;-73
2023/06/16 04:37:11;;;;;;;;;;;;;;;;;;5037764;28;20347;-73
2023/06/16 04:39:38;;;;;;;;;;;;;;;;;;5035143;28;20288;-73
2023/06/16 04:42:07;;;;;;;;;;;;;;;;;;5048490;28;19964;-74
2023/06/16 04:44:35;;;;;;;;;;;;;;;;;;5041978;28;19987;-72
2023/06/16 04:47:01;;;;;;;;;;;;;;;;;;5047760;28;20027;-68
2023/06/16 04:49:28;;;;;;;;;;;;;;;;;;5053930;28;19943;-72
2023/06/16 04:51:56;;;;;;;;;;;;;;;;;;5047525;28;19925;-73
2023/06/16 04:54:24;;;;;;;;;;;;;;;;;;5050779;28;19925;-73
2023/06/16 04:56:51;;;;;;;;;;;;;;;;;;5053014;28;20295;-72
2023/06/16 04:59:18;;;;;;;;;;;;;;;;;;5046061;28;19925;-73
2023/06/16 05:01:45;;;;;;;;;;;;;;;;;;5046634;28;19925;-73
2023/06/16 05:04:12;;;;;;;;;;;;;;;;;;5038918;28;19931;-73
2023/06/16 05:06:39;;;;;;;;;;;;;;;;;;5045857;28;19931;-73
2023/06/16 05:09:07;;;;;;;;;;;;;;;;;;5050431;28;19972;-76
2023/06/16 05:11:34;;;;;;;;;;;;;;;;;;5040075;28;19929;-76
2023/06/16 05:14:04;;;;;;;;;;;;;;;;;;5064243;28;20046;-75
2023/06/16 05:16:31;;;;;;;;;;;;;;;;;;5054373;28;19924;-79
2023/06/16 05:18:58;;;;;;;;;;;;;;;;;;5050559;28;19964;-79
2023/06/16 05:21:25;;;;;;;;;;;;;;;;;;5047310;28;19991;-78
2023/06/16 05:23:52;;;;;;;;;;;;;;;;;;5037845;28;20481;-81
2023/06/16 05:26:19;;;;;;;;;;;;;;;;;;5044148;28;19931;-75
2023/06/16 05:28:46;;;;;;;;;;;;;;;;;;5035378;28;20007;-75
2023/06/16 05:31:13;;;;;;;;;;;;;;;;;;5051083;28;20055;-76
2023/06/16 05:33:40;;;;;;;;;;;;;;;;;;5052714;28;20023;-75
2023/06/16 05:36:07;;;;;;;;;;;;;;;;;;5049081;28;19971;-74
2023/06/16 05:38:34;;;;;;;;;;;;;;;;;;5050517;28;19924;-74
2023/06/16 05:41:02;;;;;;;;;;;;;;;;;;5047078;28;19968;-74
2023/06/16 05:43:29;;;;;;;;;;;;;;;;;;5037876;28;20281;-74
2023/06/16 05:45:55;;;;;;;;;;;;;;;;;;5043842;28;20008;-74
2023/06/16 05:48:22;;;;;;;;;;;;;;;;;;5044953;28;19925;-73
2023/06/16 05:50:50;;;;;;;;;;;;;;;;;;5047631;28;20000;-74
2023/06/16 05:53:17;;;;;;;;;;;;;;;;;;5052527;28;19925;-73
2023/06/16 05:55:44;;;;;;;;;;;;;;;;;;5037269;28;20012;-73
2023/06/16 05:58:11;;;;;;;;;;;;;;;;;;5048686;28;19968;-73
2023/06/16 06:00:38;;;;;;;;;;;;;;;;;;5051068;28;19931;-73
2023/06/16 06:03:05;;;;;;;;;;;;;;;;;;5044897;28;20472;-73
2023/06/16 06:05:32;;;;;;;;;;;;;;;;;;5044446;28;19957;-74
2023/06/16 06:07:59;;;;;;;;;;;;;;;;;;5045787;28;20015;-74
2023/06/16 06:10:26;;;;;;;;;;;;;;;;;;5038671;28;20299;-73
2023/06/16 06:12:53;;;;;;;;;;;;;;;;;;5049389;28;19963;-73
2023/06/16 06:15:20;;;;;;;;;;;;;;;;;;5034919;28;19999;-74
2023/06/16 06:17:47;;;;;;;;;;;;;;;;;;5052546;28;19979;-74
2023/06/16 06:20:14;;;;;;;;;;;;;;;;;;5046255;28;20342;-74
2023/06/16 06:22:41;;;;;;;;;;;;;;;;;;5033804;28;19933;-74
2023/06/16 06:25:08;;;;;;;;;;;;;;;;;;5040464;28;19933;-75
2023/06/16 06:27:35;;;;;;;;;;;;;;;;;;5047083;28;19952;-77
2023/06/16 06:30:02;;;;;;;;;;;;;;;;;;5051865;28;19931;-74
2023/06/16 06:32:29;;;;;;;;;;;;;;;;;;5050175;28;20015;-74
2023/06/16 06:34:56;;;;;;;;;;;;;;;;;;5046380;28;19965;-74
2023/06/16 06:37:29;;;;;;;;;;;;;;;;;;5038148;28;20375;-73
2023/06/16 06:39:56;;;;;;;;;;;;;;;;;;5050686;28;19925;-74
2023/06/16 06:42:23;;;;;;;;;;;;;;;;;;5046095;28;19951;-74
2023/06/16 06:44:50;;;;;;;;;;;;;;;;;;5047216;28;19979;-73
2023/06/16 06:47:17;;;;;;;;;;;;;;;;;;5044114;28;19924;-73
2023/06/16 06:49:44;;;;;;;;;;;;;;;;;;5032120;28;20338;-73
2023/06/16 06:52:11;;;;;;;;;;;;;;;;;;5033677;28;20292;-74
2023/06/16 06:54:38;;;;;;;;;;;;;;;;;;5032343;28;19925;-74
2023/06/16 06:57:06;;;;;;;;;;;;;;;;;;5044951;28;20020;-74
2023/06/16 06:59:33;;;;;;;;;;;;;;;;;;5051126;28;19924;-74
2023/06/16 07:02:00;;;;;;;;;;;;;;;;;;5050263;28;19925;-74
2023/06/16 07:04:27;;;;;;;;;;;;;;;;;;5049815;28;20015;-74
2023/06/16 07:06:55;;;;;;;;;;;;;;;;;;5050379;28;19924;-74
2023/06/16 07:09:22;;;;;;;;;;;;;;;;;;5050555;28;19972;-74
2023/06/16 07:11:49;;;;;;;;;;;;;;;;;;5050859;28;19924;-74
2023/06/16 07:14:16;;;;;;;;;;;;;;;;;;5045911;28;19931;-74
2023/06/16 07:16:43;;;;;;;;;;;;;;;;;;5033876;28;19971;-74
2023/06/16 07:19:10;;;;;;;;;;;;;;;;;;5049668;28;19929;-74
2023/06/16 07:21:38;;;;;;;;;;;;;;;;;;5049672;28;20004;-74
2023/06/16 07:24:05;;;;;;;;;;;;;;;;;;5038724;28;19972;-74
2023/06/16 07:26:32;;;;;;;;;;;;;;;;;;5034985;28;19925;-74
2023/06/16 07:28:59;;;;;;;;;;;;;;;;;;5045011;28;19928;-74
2023/06/16 07:31:26;;;;;;;;;;;;;;;;;;5054630;28;20023;-73
2023/06/16 07:33:53;;;;;;;;;;;;;;;;;;5044279;28;20312;-73
2023/06/16 07:36:20;;;;;;;;;;;;;;;;;;5043637;28;20003;-74
2023/06/16 07:38:47;;;;;;;;;;;;;;;;;;5055095;28;20007;-73
2023/06/16 07:41:14;;;;;;;;;;;;;;;;;;5037780;28;20003;-73
2023/06/16 07:43:41;;;;;;;;;;;;;;;;;;5042713;28;19932;-73
2023/06/16 07:46:08;;;;;;;;;;;;;;;;;;5045304;28;19971;-73
2023/06/16 07:48:35;;;;;;;;;;;;;;;;;;5042977;28;19925;-73
2023/06/16 07:51:02;;;;;;;;;;;;;;;;;;5050891;28;20016;-73
2023/06/16 07:53:29;;;;;;;;;;;;;;;;;;5037666;28;20364;-73
2023/06/16 07:55:56;;;;;;;;;;;;;;;;;;5055502;28;20340;-74
2023/06/16 07:58:23;;;;;;;;;;;;;;;;;;5055412;28;20355;-74
2023/06/16 08:00:51;;;;;;;;;;;;;;;;;;5055014;28;19924;-74
2023/06/16 08:03:18;;;;;;;;;;;;;;;;;;5052729;28;20410;-74
2023/06/16 08:05:45;;;;;;;;;;;;;;;;;;5046701;28;20378;-73
2023/06/16 08:08:12;;;;;;;;;;;;;;;;;;5045602;28;20023;-74
2023/06/16 08:10:39;;;;;;;;;;;;;;;;;;5050236;28;19924;-73
2023/06/16 08:13:06;;;;;;;;;;;;;;;;;;5045952;28;19929;-72
2023/06/16 08:15:33;;;;;;;;;;;;;;;;;;5035072;28;20007;-72
2023/06/16 08:18:00;;;;;;;;;;;;;;;;;;5052056;28;19978;-73
2023/06/16 08:20:27;;;;;;;;;;;;;;;;;;5050822;28;20027;-71
2023/06/16 08:22:54;;;;;;;;;;;;;;;;;;5040377;28;20007;-71
2023/06/16 08:25:23;;;;;;;;;;;;;;;;;;5045178;28;19929;-71
2023/06/16 08:27:50;;;;;;;;;;;;;;;;;;5046306;28;19924;-72
2023/06/16 08:30:17;;;;;;;;;;;;;;;;;;5051480;28;20008;-71
2023/06/16 08:32:44;;;;;;;;;;;;;;;;;;5050782;28;20371;-72
2023/06/16 08:35:12;;;;;;;;;;;;;;;;;;5046348;28;20358;-73
2023/06/16 08:37:39;;;;;;;;;;;;;;;;;;5044240;28;19999;-73
2023/06/16 08:40:10;;;;;;;;;;;;;;;;;;5047688;28;19932;-74
2023/06/16 08:42:37;;;;;;;;;;;;;;;;;;5049711;28;20020;-73
2023/06/16 08:45:04;;;;;;;;;;;;;;;;;;5040419;28;20350;-73
2023/06/16 08:47:31;;;;;;;;;;;;;;;;;;5047754;28;19929;-73
2023/06/16 08:49:58;;;;;;;;;;;;;;;;;;5041939;28;19924;-73
2023/06/16 08:52:25;;;;;;;;;;;;;;;;;;5047165;28;20336;-73
2023/06/16 08:54:57;;;;;;;;;;;;;;;;;;5046406;28;19929;-72
2023/06/16 08:57:24;;;;;;;;;;;;;;;;;;5049730;28;19925;-72
2023/06/16 08:59:51;;;;;;;;;;;;;;;;;;5052855;28;19924;-72
2023/06/16 09:02:18;;;;;;;;;;;;;;;;;;5047687;28;19932;-73
2023/06/16 09:04:45;;;;;;;;;;;;;;;;;;5050838;28;19968;-72
2023/06/16 09:07:16;;;;;;;;;;;;;;;;;;5053630;28;20008;-73
2023/06/16 09:09:43;;;;;;;;;;;;;;;;;;5054083;28;19924;-73
2023/06/16 09:12:10;;;;;;;;;;;;;;;;;;5047971;28;19925;-72
2023/06/16 09:14:38;;;;;;;;;;;;;;;;;;5044116;28;19925;-72
2023/06/16 09:17:05;;;;;;;;;;;;;;;;;;5049649;28;19925;-73
2023/06/16 09:19:34;;;;;;;;;;;;;;;;;;5045408;28;19928;-73
2023/06/16 09:22:01;;;;;;;;;;;;;;;;;;5047364;28;20026;-74
2023/06/16 09:24:28;;;;;;;;;;;;;;;;;;5048901;28;19995;-73
2023/06/16 09:26:55;;;;;;;;;;;;;;;;;;5047786;28;19924;-73
2023/06/16 09:29:23;;;;;;;;;;;;;;;;;;5040918;28;20012;-73
2023/06/16 09:31:50;;;;;;;;;;;;;;;;;;5045495;28;20028;-73
2023/06/16 09:34:17;;;;;;;;;;;;;;;;;;5036659;28;19982;-73
2023/06/16 09:36:45;;;;;;;;;;;;;;;;;;5047067;28;19932;-73
2023/06/16 09:39:12;;;;;;;;;;;;;;;;;;5043544;28;19986;-73
2023/06/16 09:41:39;;;;;;;;;;;;;;;;;;5049133;28;19932;-73
2023/06/16 09:44:06;;;;;;;;;;;;;;;;;;5048821;28;19947;-72
2023/06/16 09:46:33;;;;;;;;;;;;;;;;;;5044204;28;20430;-72
2023/06/16 09:49:00;;;;;;;;;;;;;;;;;;5041527;28;20400;-72
2023/06/16 09:51:27;;;;;;;;;;;;;;;;;;5045635;28;19925;-72
2023/06/16 09:53:54;;;;;;;;;;;;;;;;;;5033624;28;19931;-72
2023/06/16 09:56:21;;;;;;;;;;;;;;;;;;5044011;28;19971;-71
2023/06/16 09:58:48;;;;;;;;;;;;;;;;;;5050650;28;20011;-72
2023/06/16 10:01:15;;;;;;;;;;;;;;;;;;5048094;28;19925;-72
2023/06/16 10:03:43;;;;;;;;;;;;;;;;;;5035082;28;19983;-72
2023/06/16 10:06:11;;;;;;;;;;;;;;;;;;5035276;28;19991;-72
2023/06/16 10:08:39;;;;;;;;;;;;;;;;;;5048091;28;19991;-72
2023/06/16 10:11:06;;;;;;;;;;;;;;;;;;5047290;28;19929;-72
2023/06/16 10:13:33;;;;;;;;;;;;;;;;;;5037423;28;20384;-72
2023/06/16 10:16:00;;;;;;;;;;;;;;;;;;5039419;28;19925;-72
2023/06/16 10:18:27;;;;;;;;;;;;;;;;;;5041828;28;20019;-72
2023/06/16 10:20:54;;;;;;;;;;;;;;;;;;5045120;28;19952;-72
2023/06/16 10:23:21;;;;;;;;;;;;;;;;;;5042415;28;19929;-70
2023/06/16 10:25:48;;;;;;;;;;;;;;;;;;5035341;28;20013;-71
2023/06/16 10:28:15;;;;;;;;;;;;;;;;;;5044786;28;19932;-71
2023/06/16 10:30:43;;;;;;;;;;;;;;;;;;5045715;28;20299;-71
2023/06/16 10:33:10;;;;;;;;;;;;;;;;;;5040054;28;19929;-72
2023/06/16 10:35:38;;;;;;;;;;;;;;;;;;5046769;28;19925;-70
2023/06/16 10:38:05;;;;;;;;;;;;;;;;;;5042242;28;19933;-72
2023/06/16 10:40:32;;;;;;;;;;;;;;;;;;5052215;28;19971;-70
2023/06/16 10:42:59;;;;;;;;;;;;;;;;;;5052440;28;19968;-71
2023/06/16 10:45:26;;;;;;;;;;;;;;;;;;5052214;28;19964;-71
2023/06/16 10:47:53;;;;;;;;;;;;;;;;;;5052428;28;19929;-71
2023/06/16 10:50:20;;;;;;;;;;;;;;;;;;5052231;28;19925;-71
2023/06/16 10:52:47;;;;;;;;;;;;;;;;;;5045311;28;20017;-71
2023/06/16 10:55:14;;;;;;;;;;;;;;;;;;5041047;28;20395;-71
2023/06/16 10:57:41;;;;;;;;;;;;;;;;;;5049357;28;19940;-70
2023/06/16 11:00:11;;;;;;;;;;;;;;;;;;5041492;28;19968;-71
2023/06/16 11:02:37;;;;;;;;;;;;;;;;;;5046486;28;20272;-71
2023/06/16 11:05:04;;;;;;;;;;;;;;;;;;5042780;28;20004;-71
2023/06/16 11:07:31;;;;;;;;;;;;;;;;;;5035193;28;19928;-72
2023/06/16 11:09:58;;;;;;;;;;;;;;;;;;5042821;28;20308;-71
2023/06/16 11:12:25;;;;;;;;;;;;;;;;;;5038741;28;19929;-71
2023/06/16 11:14:52;;;;;;;;;;;;;;;;;;5031634;28;19925;-72
2023/06/16 11:17:19;;;;;;;;;;;;;;;;;;5029480;28;19929;-73
2023/06/16 11:19:46;;;;;;;;;;;;;;;;;;5036680;28;19929;-72
2023/06/16 11:22:13;;;;;;;;;;;;;;;;;;5046538;28;19933;-72
2023/06/16 11:24:40;;;;;;;;;;;;;;;;;;5048633;28;19988;-72
2023/06/16 11:27:07;;;;;;;;;;;;;;;;;;5045773;28;19925;-72
2023/06/16 11:29:36;;;;;;;;;;;;;;;;;;5047586;28;19968;-72
2023/06/16 11:32:03;;;;;;;;;;;;;;;;;;5041093;28;20364;-72
2023/06/16 11:34:30;;;;;;;;;;;;;;;;;;5033362;28;20056;-72
2023/06/16 11:36:57;;;;;;;;;;;;;;;;;;5043916;28;19925;-72
2023/06/16 11:39:24;;;;;;;;;;;;;;;;;;5044930;28;20023;-72
2023/06/16 11:41:51;;;;;;;;;;;;;;;;;;5046339;28;19929;-73
2023/06/16 11:44:18;;;;;;;;;;;;;;;;;;5049873;28;20016;-72
2023/06/16 11:46:45;;;;;;;;;;;;;;;;;;5044213;28;20019;-73
2023/06/16 11:49:12;;;;;;;;;;;;;;;;;;5039183;28;19925;-72
2023/06/16 11:51:39;;;;;;;;;;;;;;;;;;5049737;28;19925;-73
2023/06/16 11:54:06;;;;;;;;;;;;;;;;;;5051387;28;20029;-74
2023/06/16 11:56:33;;;;;;;;;;;;;;;;;;5038755;28;19988;-72
2023/06/16 11:59:01;;;;;;;;;;;;;;;;;;5032070;28;19925;-73
2023/06/16 12:01:28;;;;;;;;;;;;;;;;;;5039807;28;19948;-71
2023/06/16 12:03:55;;;;;;;;;;;;;;;;;;5044913;28;20459;-70
2023/06/16 12:06:23;;;;;;;;;;;;;;;;;;5040857;28;19925;-70
2023/06/16 12:08:50;;;;;;;;;;;;;;;;;;5047652;28;20446;-72
2023/06/16 12:11:17;;;;;;;;;;;;;;;;;;5045665;28;19963;-72
2023/06/16 12:13:44;;;;;;;;;;;;;;;;;;5052949;28;19931;-72
2023/06/16 12:16:11;;;;;;;;;;;;;;;;;;5048249;28;20395;-72
2023/06/16 12:18:38;;;;;;;;;;;;;;;;;;5043613;28;19929;-72
2023/06/16 12:21:05;;;;;;;;;;;;;;;;;;5042015;28;20020;-71
2023/06/16 12:23:33;;;;;;;;;;;;;;;;;;5050281;28;20303;-73
2023/06/16 12:26:00;;;;;;;;;;;;;;;;;;5051151;28;20028;-73
2023/06/16 12:28:27;;;;;;;;;;;;;;;;;;5049603;28;20012;-71
2023/06/16 12:30:53;;;;;;;;;;;;;;;;;;5054280;28;19967;-71
2023/06/16 12:33:20;;;;;;;;;;;;;;;;;;5046551;28;20008;-72
2023/06/16 12:35:48;;;;;;;;;;;;;;;;;;5049883;28;20011;-71
2023/06/16 12:38:15;;;;;;;;;;;;;;;;;;5046700;28;20019;-71
2023/06/16 12:40:42;;;;;;;;;;;;;;;;;;5042135;28;20028;-71
2023/06/16 12:43:09;;;;;;;;;;;;;;;;;;5051211;28;20303;-69
2023/06/16 12:45:36;;;;;;;;;;;;;;;;;;5051297;28;20027;-71
2023/06/16 12:48:03;;;;;;;;;;;;;;;;;;5045233;28;20460;-71
2023/06/16 12:50:30;;;;;;;;;;;;;;;;;;5045282;28;19956;-71
2023/06/16 12:52:57;;;;;;;;;;;;;;;;;;5043579;28;20346;-71
2023/06/16 12:55:24;;;;;;;;;;;;;;;;;;5048248;28;20375;-72
2023/06/16 12:57:51;;;;;;;;;;;;;;;;;;5042861;28;19972;-70
2023/06/16 13:00:19;;;;;;;;;;;;;;;;;;5049890;28;20020;-70
2023/06/16 13:02:46;;;;;;;;;;;;;;;;;;5037668;28;19925;-70
2023/06/16 13:05:13;;;;;;;;;;;;;;;;;;5044800;28;19999;-69
2023/06/16 13:07:40;;;;;;;;;;;;;;;;;;5041178;28;20017;-70
2023/06/16 13:10:07;;;;;;;;;;;;;;;;;;5047092;28;19928;-69
2023/06/16 13:12:34;;;;;;;;;;;;;;;;;;5048257;28;20021;-69
2023/06/16 13:15:01;;;;;;;;;;;;;;;;;;5050456;28;20023;-67
2023/06/16 13:17:28;;;;;;;;;;;;;;;;;;5041843;28;20007;-68
2023/06/16 13:19:55;;;;;;;;;;;;;;;;;;5045484;28;20019;-68
2023/06/16 13:22:23;;;;;;;;;;;;;;;;;;5039172;28;19925;-69
2023/06/16 13:24:50;;;;;;;;;;;;;;;;;;5049803;28;19975;-70
2023/06/16 13:27:18;;;;;;;;;;;;;;;;;;5044318;28;19925;-70
2023/06/16 13:29:45;;;;;;;;;;;;;;;;;;5048587;28;20351;-72
2023/06/16 13:32:12;;;;;;;;;;;;;;;;;;5051139;28;19925;-72
2023/06/16 13:34:39;;;;;;;;;;;;;;;;;;5051465;28;20012;-71
2023/06/16 13:37:06;;;;;;;;;;;;;;;;;;5047843;28;19933;-72
2023/06/16 13:39:33;;;;;;;;;;;;;;;;;;5046588;28;20376;-70
2023/06/16 13:42:00;;;;;;;;;;;;;;;;;;5047283;28;19995;-72
2023/06/16 13:44:27;;;;;;;;;;;;;;;;;;5043959;28;20031;-72
2023/06/16 13:46:54;;;;;;;;;;;;;;;;;;5042924;28;20035;-71
2023/06/16 13:49:21;;;;;;;;;;;;;;;;;;5047599;28;19925;-71
2023/06/16 13:51:48;;;;;;;;;;;;;;;;;;5045868;28;20015;-71
2023/06/16 13:54:15;;;;;;;;;;;;;;;;;;5045518;28;19957;-71
2023/06/16 13:56:42;;;;;;;;;;;;;;;;;;5041918;28;20015;-72
2023/06/16 13:59:09;;;;;;;;;;;;;;;;;;5050789;28;20288;-71
2023/06/16 14:01:36;;;;;;;;;;;;;;;;;;5040311;28;20008;-71
2023/06/16 14:04:03;;;;;;;;;;;;;;;;;;5039530;28;19929;-71
2023/06/16 14:06:30;;;;;;;;;;;;;;;;;;5048896;28;19952;-71
2023/06/16 14:08:59;;;;;;;;;;;;;;;;;;5035186;28;19964;-70
2023/06/16 14:11:26;;;;;;;;;;;;;;;;;;5034982;28;19940;-71
2023/06/16 14:13:53;;;;;;;;;;;;;;;;;;5047115;28;20035;-72
2023/06/16 14:16:20;;;;;;;;;;;;;;;;;;5049281;28;20396;-70
2023/06/16 14:18:49;;;;;;;;;;;;;;;;;;5044393;28;20015;-70
2023/06/16 14:21:16;;;;;;;;;;;;;;;;;;5044687;28;19932;-70
2023/06/16 14:23:44;;;;;;;;;;;;;;;;;;5043169;28;20363;-70
2023/06/16 14:26:11;;;;;;;;;;;;;;;;;;5050078;28;19976;-69
2023/06/16 14:28:38;;;;;;;;;;;;;;;;;;5044293;28;20012;-70
2023/06/16 14:31:06;;;;;;;;;;;;;;;;;;5050333;28;19929;-71
2023/06/16 14:33:33;;;;;;;;;;;;;;;;;;5049163;28;19968;-70
2023/06/16 14:36:01;;;;;;;;;;;;;;;;;;5042666;28;19975;-70
2023/06/16 14:38:28;;;;;;;;;;;;;;;;;;5048502;28;20376;-70
2023/06/16 14:40:56;;;;;;;;;;;;;;;;;;5045717;28;19971;-69
2023/06/16 14:43:24;;;;;;;;;;;;;;;;;;5049323;28;19925;-69
2023/06/16 14:45:51;;;;;;;;;;;;;;;;;;5047345;28;19925;-70
2023/06/16 14:48:19;;;;;;;;;;;;;;;;;;5041602;28;19986;-72
2023/06/16 14:50:46;;;;;;;;;;;;;;;;;;5052480;28;19940;-71
2023/06/16 14:53:14;;;;;;;;;;;;;;;;;;5037725;28;19935;-71
2023/06/16 14:55:41;;;;;;;;;;;;;;;;;;5043875;28;19925;-71
2023/06/16 14:58:08;;;;;;;;;;;;;;;;;;5041758;28;19931;-72
2023/06/16 15:00:36;;;;;;;;;;;;;;;;;;5038253;28;19988;-71
2023/06/16 15:03:03;;;;;;;;;;;;;;;;;;5043784;28;19924;-71
2023/06/16 15:05:31;;;;;;;;;;;;;;;;;;5035951;28;19932;-71
2023/06/16 15:07:59;;;;;;;;;;;;;;;;;;5042678;28;20380;-72
2023/06/16 15:10:27;;;;;;;;;;;;;;;;;;5040084;28;19947;-72
2023/06/16 15:12:54;;;;;;;;;;;;;;;;;;5042858;28;20384;-71
2023/06/16 15:15:21;;;;;;;;;;;;;;;;;;5043850;28;19940;-71
2023/06/16 15:17:48;;;;;;;;;;;;;;;;;;5043436;28;20012;-71
2023/06/16 15:20:15;;;;;;;;;;;;;;;;;;5042428;28;20379;-71
2023/06/16 15:22:42;;;;;;;;;;;;;;;;;;5042081;28;20344;-71
2023/06/16 15:25:09;;;;;;;;;;;;;;;;;;5045995;28;20100;-71
2023/06/16 15:27:37;;;;;;;;;;;;;;;;;;5039948;28;19928;-70
2023/06/16 15:30:04;;;;;;;;;;;;;;;;;;5046583;28;19976;-69
2023/06/16 15:32:31;;;;;;;;;;;;;;;;;;5042422;28;20015;-73
2023/06/16 15:35:00;;;;;;;;;;;;;;;;;;5044257;28;20034;-69
2023/06/16 15:37:27;;;;;;;;;;;;;;;;;;5046363;28;19971;-71
2023/06/16 15:39:55;;;;;;;;;;;;;;;;;;5051080;28;19939;-70
2023/06/16 15:42:26;;;;;;;;;;;;;;;;;;5046562;28;19929;-69
2023/06/16 15:44:57;;;;;;;;;;;;;;;;;;5041041;28;19932;-69
2023/06/16 15:47:25;;;;;;;;;;;;;;;;;;5053992;28;19925;-72
2023/06/16 15:49:54;;;;;;;;;;;;;;;;;;5054892;28;19925;-72
2023/06/16 15:52:25;;;;;;;;;;;;;;;;;;5055260;28;20380;-71
2023/06/16 15:54:58;;;;;;;;;;;;;;;;;;5054326;28;19947;-75
2023/06/16 15:57:27;;;;;;;;;;;;;;;;;;5047340;28;19933;-72
2023/06/16 15:59:54;;;;;;;;;;;;;;;;;;5047980;28;19925;-72
2023/06/16 16:02:21;;;;;;;;;;;;;;;;;;5035718;28;19925;-72
2023/06/16 16:04:51;;;;;;;;;;;;;;;;;;5048660;28;20036;-73
2023/06/16 16:07:20;;;;;;;;;;;;;;;;;;5053210;28;19925;-71
2023/06/16 16:09:47;;;;;;;;;;;;;;;;;;5051742;28;19931;-73
2023/06/16 16:12:14;;;;;;;;;;;;;;;;;;5044987;28;19971;-73
2023/06/16 16:14:41;;;;;;;;;;;;;;;;;;5043121;28;20024;-72
2023/06/16 16:17:10;;;;;;;;;;;;;;;;;;5046855;28;20333;-72
2023/06/16 16:19:39;;;;;;;;;;;;;;;;;;5051656;28;20003;-72
2023/06/16 16:22:07;;;;;;;;;;;;;;;;;;5047277;28;19929;-71
2023/06/16 16:24:34;;;;;;;;;;;;;;;;;;5045532;28;19955;-71
2023/06/16 16:27:01;;;;;;;;;;;;;;;;;;5048138;28;19936;-73
2023/06/16 16:29:30;;;;;;;;;;;;;;;;;;5051747;28;19924;-73
2023/06/16 16:31:58;;;;;;;;;;;;;;;;;;5048562;28;20276;-72
2023/06/16 16:34:28;;;;;;;;;;;;;;;;;;5048379;28;20494;-70
2023/06/16 16:36:56;;;;;;;;;;;;;;;;;;5044616;28;19929;-73
2023/06/16 16:39:23;;;;;;;;;;;;;;;;;;5045621;28;20327;-71
2023/06/16 16:41:52;;;;;;;;;;;;;;;;;;5040600;28;20388;-71
2023/06/16 16:44:19;;;;;;;;;;;;;;;;;;5039274;28;19996;-70
2023/06/16 16:46:46;;;;;;;;;;;;;;;;;;5033546;28;20023;-68